Latest Weather Observations for Cowra

IDN60801

Issued at 10:35 am EDT Thursday 27 November 2014 (issued every 30 minutes, with the page automatically refreshed every 10 minutes)

About weather observations | Map of weather stations | Latest weather observations for NSW | Other Formats
Station Details ID: 065111 Name: COWRA AIRPORT AWS Lat: -33.84 Lon: 148.65 Height: 296.5 m
Data from the previous 72 hours. | See also: Recent months at Cowra
Date/Time
EDT
Temp
°C
App
Temp
°C
Dew
Point
Rel
Hum
%
Delta-T
°C
Wind Press
QNH
hPa
Press
MSL
hPa
Rain
since 9 am
mm
Dir
 
Spd
km/h
Gust
km/h
Spd
kts
Gust
kts
27/10:30am 24.6 22.9 11.2 43 7.6 ESE 11 20 6 11 1019.7 - 0.0
27/10:00am 23.2 21.0 10.9 46 6.9 E 13 20 7 11 1019.9 - 0.0
27/09:30am 22.6 20.2 11.4 49 6.3 E 15 22 8 12 1020.2 - 0.0
27/09:00am 21.9 19.9 11.6 52 5.8 E 13 24 7 13 1020.4 1019.8 0.0
27/08:30am 20.8 18.8 12.8 60 4.6 SE 15 20 8 11 1020.5 - 0.0
27/08:00am 19.2 17.6 12.7 66 3.7 SSE 13 20 7 11 1020.4 - 0.0
27/07:30am 17.2 16.5 11.9 71 2.9 SE 7 9 4 5 1020.1 - 0.0
27/07:00am 15.4 14.5 11.2 76 2.3 ESE 7 11 4 6 1019.8 - 0.0
27/06:30am 14.0 12.8 10.4 79 1.9 SE 7 9 4 5 1019.4 - 0.0
27/06:00am 13.2 11.9 9.8 80 1.8 SE 7 11 4 6 1019.2 1018.6 0.0
27/05:30am 13.4 12.2 10.2 81 1.7 SE 7 9 4 5 1018.9 - 0.0
27/05:00am 14.2 12.8 11.0 81 1.7 SSE 9 11 5 6 1018.4 - 0.0
27/04:30am 13.9 12.4 9.1 73 2.5 SSE 7 9 4 5 1017.9 - 0.0
27/04:00am 14.3 12.6 9.7 74 2.4 SSE 9 11 5 6 1017.6 - 0.0
27/03:30am 14.8 12.7 9.8 72 2.6 SSE 11 13 6 7 1017.6 - 0.0
27/03:00am 14.4 12.4 8.8 69 2.9 SSE 9 11 5 6 1017.7 1017.1 0.0
27/02:30am 14.0 11.5 6.4 60 3.7 S 9 11 5 6 1017.8 - 0.0
27/02:00am 14.8 11.4 4.2 49 5.0 S 11 13 6 7 1017.9 - 0.0
27/01:30am 15.7 13.0 3.5 44 5.7 SE 7 9 4 5 1018.0 - 0.0
27/01:00am 14.6 11.9 2.8 45 5.4 S 6 9 3 5 1018.2 - 0.0
27/12:30am 16.4 13.9 1.7 37 6.6 SSE 4 7 2 4 1018.3 - 0.0
27/12:00am 18.7 15.0 2.1 33 7.7 S 11 13 6 7 1018.4 1017.8 0.0
 
Date/Time
EDT
Temp
°C
App
Temp
°C
Dew
Point
Rel
Hum
%
Delta-T
°C
Wind Press
QNH
hPa
Press
MSL
hPa
Rain
since 9 am
mm
Dir
 
Spd
km/h
Gust
km/h
Spd
kts
Gust
kts
26/11:30pm 19.3 15.9 1.8 31 8.1 SSE 9 13 5 7 1018.4 - 0.0
26/11:00pm 19.4 16.0 1.9 31 8.1 SSE 9 13 5 7 1018.3 - 0.0
26/10:30pm 19.4 16.0 1.9 31 8.1 S 9 13 5 7 1018.2 - 0.0
26/10:00pm 19.6 15.4 1.6 30 8.3 SSW 13 15 7 8 1017.9 - 0.0
26/09:30pm 20.2 15.6 1.6 29 8.6 SSW 15 17 8 9 1017.6 - 0.0
26/09:00pm 21.2 17.4 1.5 27 9.2 SSW 11 15 6 8 1017.3 1016.7 0.0
26/08:30pm 22.4 18.2 1.4 25 9.9 SSW 13 17 7 9 1017.1 - 0.0
26/08:00pm 23.7 19.1 1.4 23 10.6 S 15 19 8 10 1016.9 - 0.0
26/07:30pm 25.7 20.2 0.4 19 12.0 SSW 19 24 10 13 1016.6 - 0.0
26/07:00pm 26.6 20.8 -0.4 17 12.7 SSW 20 24 11 13 1016.1 - 0.0
26/06:30pm 27.2 21.1 0.1 17 12.9 SW 22 28 12 15 1015.7 - 0.0
26/06:00pm 27.8 21.6 -0.3 16 13.3 SW 22 32 12 17 1015.4 1014.7 0.0
26/05:30pm 28.1 22.1 -1.9 14 13.9 SW 20 26 11 14 1015.4 - 0.0
26/05:00pm 28.1 22.2 -1.9 14 13.9 WSW 19 32 10 17 1015.5 - 0.0
26/04:30pm 28.4 23.1 -0.7 15 13.8 SW 17 30 9 16 1015.6 - 0.0
26/04:00pm 28.7 24.1 -1.4 14 14.1 SW 13 26 7 14 1015.8 - 0.0
26/03:30pm 28.0 22.9 -2.0 14 13.8 S 15 28 8 15 1016.1 - 0.0
26/03:00pm 28.2 22.2 -1.8 14 13.9 SW 20 28 11 15 1016.4 1015.7 0.0
26/02:30pm 27.2 21.3 -2.6 14 13.5 WSW 19 37 10 20 1016.7 - 0.0
26/02:00pm 26.9 22.3 -1.0 16 13.0 W 13 22 7 12 1016.9 - 0.0
26/01:30pm 26.6 22.2 0.4 18 12.5 W 13 22 7 12 1017.2 - 0.0
26/01:00pm 26.3 23.1 2.9 22 11.6 WSW 9 13 5 7 1017.7 - 0.0
26/12:30pm 25.6 22.6 2.3 22 11.4 S 7 20 4 11 1017.9 - 0.0
26/12:00pm 25.0 21.0 3.0 24 10.8 W 13 19 7 10 1018.4 1017.8 0.0
26/11:30am 24.3 20.4 3.6 26 10.3 SSW 13 20 7 11 1018.8 - 0.0
26/11:00am 23.5 20.2 2.4 25 10.2 WSW 9 15 5 8 1019.1 - 0.0
26/10:30am 22.5 19.5 4.1 30 9.1 SW 9 19 5 10 1019.2 - 0.0
26/10:00am 21.3 18.5 5.2 35 8.1 SE 9 17 5 9 1019.4 - 0.0
26/09:30am 20.2 17.3 4.7 36 7.6 S 9 15 5 8 1019.7 - 0.0
26/09:00am 18.3 15.3 4.1 39 6.8 SSE 9 13 5 7 1020.0 1019.4 0.0
26/08:30am 17.3 14.7 4.3 42 6.2 SE 7 11 4 6 1020.1 - 0.0
26/08:00am 15.0 12.6 4.4 49 5.0 SSE 6 9 3 5 1020.0 - 0.0
26/07:30am 13.1 10.5 4.0 54 4.2 SE 7 11 4 6 1019.9 - 0.0
26/07:00am 11.1 7.2 3.4 59 3.4 ESE 13 15 7 8 1019.7 - 0.0
26/06:30am 9.3 5.3 2.6 63 2.9 E 13 17 7 9 1019.6 - 0.0
26/06:00am 8.8 5.5 2.6 65 2.7 ESE 9 13 5 7 1019.2 1018.5 0.0
26/05:30am 9.1 5.5 2.7 64 2.8 ESE 11 15 6 8 1018.8 - 0.0
26/05:00am 9.9 6.2 2.3 59 3.3 ESE 11 13 6 7 1018.5 - 0.0
26/04:30am 8.7 5.5 2.9 67 2.5 ESE 9 13 5 7 1018.5 - 0.0
26/04:00am 9.1 6.6 1.8 60 3.1 SSE 4 7 2 4 1018.5 - 0.0
26/03:30am 9.8 7.0 2.2 59 3.3 SSE 6 7 3 4 1018.5 - 0.0
26/03:00am 8.9 5.6 2.5 64 2.7 S 9 13 5 7 1018.8 1018.2 0.0
26/02:30am 9.3 7.2 1.9 60 3.1 E 2 7 1 4 1019.0 - 0.0
26/02:00am 12.0 9.6 1.9 50 4.4 E 4 11 2 6 1019.2 - 0.0
26/01:30am 13.0 9.9 1.4 45 5.0 E 7 9 4 5 1019.2 - 0.0
26/01:00am 15.2 11.9 2.4 42 5.8 SE 9 13 5 7 1019.3 - 0.0
26/12:30am 14.3 11.4 2.5 45 5.3 SE 7 9 4 5 1019.8 - 0.0
26/12:00am 14.9 11.2 2.4 43 5.6 S 11 13 6 7 1020.0 1019.4 0.0
 
Date/Time
EDT
Temp
°C
App
Temp
°C
Dew
Point
Rel
Hum
%
Delta-T
°C
Wind Press
QNH
hPa
Press
MSL
hPa
Rain
since 9 am
mm
Dir
 
Spd
km/h
Gust
km/h
Spd
kts
Gust
kts
25/11:30pm 15.8 12.1 2.2 40 6.2 SSE 11 13 6 7 1020.0 - 0.0
25/11:00pm 16.3 12.9 1.6 37 6.6 SSE 9 11 5 6 1019.9 - 0.0
25/10:30pm 16.7 12.9 2.0 37 6.7 S 11 13 6 7 1019.7 - 0.0
25/10:00pm 16.7 12.4 1.2 35 6.9 S 13 15 7 8 1019.4 - 0.0
25/09:30pm 17.5 12.8 0.6 32 7.5 SSW 15 19 8 10 1018.9 - 0.0
25/09:00pm 17.7 13.2 -0.5 29 7.9 SSW 13 15 7 8 1018.5 1017.9 0.0
25/08:30pm 18.5 13.8 -1.9 25 8.7 SSW 13 15 7 8 1018.3 - 0.0
25/08:00pm 20.5 15.6 -3.2 20 10.0 SW 13 17 7 9 1018.0 - 0.0
25/07:30pm 22.9 17.2 -3.4 17 11.3 SW 17 22 9 12 1017.7 - 0.0
25/07:00pm 24.0 17.8 -5.1 14 12.2 SSW 19 26 10 14 1017.2 - 0.0
25/06:30pm 25.0 18.6 -5.3 13 12.8 SSW 20 35 11 19 1016.8 - 0.0
25/06:00pm 25.7 19.8 -5.8 12 13.3 SW 17 30 9 16 1016.7 1015.9 0.0
25/05:30pm 26.0 19.6 -6.7 11 13.6 SW 19 28 10 15 1016.7 - 0.0
25/05:00pm 25.7 20.5 -5.8 12 13.3 SW 13 28 7 15 1016.8 - 0.0
25/04:30pm 25.5 19.7 -4.9 13 13.0 SSW 17 26 9 14 1016.8 - 0.0
25/04:00pm 25.8 18.4 -6.9 11 13.5 WSW 24 33 13 18 1017.0 - 0.0
25/03:30pm 25.7 19.2 -5.8 12 13.3 SW 20 35 11 19 1017.1 - 0.0
25/03:00pm 25.0 18.9 -7.5 11 13.2 SSW 17 32 9 17 1017.1 1016.5 0.0
25/02:30pm 25.3 19.1 -5.1 13 12.9 SW 19 35 10 19 1017.2 - 0.0
25/02:00pm 25.0 18.7 -4.3 14 12.6 S 20 30 11 16 1017.4 - 0.0
25/01:30pm 24.2 17.9 -4.0 15 12.1 S 20 30 11 16 1017.5 - 0.0
25/01:00pm 23.5 17.5 -2.9 17 11.5 SSW 19 32 10 17 1017.8 - 0.0
25/12:30pm 22.9 18.3 -1.2 20 10.8 WSW 13 24 7 13 1017.9 - 0.0
25/12:00pm 22.2 17.6 -1.1 21 10.4 WSW 13 24 7 13 1018.2 1017.5 0.0
25/11:30am 20.4 15.5 -0.3 25 9.3 SSW 15 30 8 16 1018.5 - 0.0
25/11:00am 20.1 15.8 1.0 28 8.8 SSW 13 22 7 12 1018.6 - 0.0
25/10:30am 18.3 13.0 -0.5 28 8.2 SSW 17 26 9 14 1018.7 - 0.0
25/10:00am 16.7 11.7 -1.4 29 7.7 SSW 15 24 8 13 1018.7 - 0.0
25/09:30am 16.7 11.0 -0.5 31 7.4 SSW 19 30 10 16 1018.5 - 0.0
25/09:00am 16.3 9.7 -0.4 32 7.2 SSW 24 32 13 17 1018.3 1017.7 0.2
25/08:30am 15.8 10.7 4.2 46 5.5 SSW 20 32 11 17 1018.1 - 0.2
25/08:00am 15.3 9.9 4.7 49 5.0 SSW 22 30 12 16 1017.8 - 0.2
25/07:30am 15.2 10.5 6.0 54 4.5 SW 20 32 11 17 1017.3 - 0.2
25/07:00am 15.5 10.8 6.2 54 4.6 SW 20 32 11 17 1016.6 - 0.2
25/06:30am 16.0 13.0 7.7 58 4.2 SW 13 22 7 12 1016.0 - 0.2
25/06:00am 16.6 11.7 8.3 58 4.3 SW 24 35 13 19 1015.0 1014.3 0.2
25/05:30am 17.2 12.2 9.4 60 4.1 SW 26 35 14 19 1014.3 - 0.2
25/05:00am 18.0 11.4 10.1 60 4.3 SW 35 46 19 25 1013.3 - 0.2
25/04:30am 19.5 16.8 14.7 74 2.8 WSW 22 30 12 16 1012.5 - 0.2
25/04:00am 20.0 17.7 14.6 71 3.2 WSW 20 24 11 13 1012.2 - 0.2
25/03:30am 20.1 19.6 14.9 72 3.1 W 11 15 6 8 1011.7 - 0.2
25/03:00am 20.1 19.4 15.3 74 2.9 NW 13 20 7 11 1012.1 1011.4 0.2
25/02:30am 19.9 20.1 15.7 77 2.5 NNW 9 15 5 8 1012.0 - 0.2
25/02:00am 19.9 20.8 15.1 74 2.9 NNW 4 7 2 4 1011.8 - 0.2
25/01:30am 20.0 21.1 15.6 76 2.6 S 4 9 2 5 1011.6 - 0.2
25/01:00am 19.2 19.4 15.7 80 2.1 W 9 13 5 7 1012.0 - 0.2
25/12:30am 20.9 21.0 14.5 67 3.8 ESE 7 11 4 6 1011.0 - 0.2
25/12:00am 21.5 22.6 14.6 65 4.1 SSE 2 7 1 4 1011.7 1011.1 0.2
 
Date/Time
EDT
Temp
°C
App
Temp
°C
Dew
Point
Rel
Hum
%
Delta-T
°C
Wind Press
QNH
hPa
Press
MSL
hPa
Rain
since 9 am
mm
Dir
 
Spd
km/h
Gust
km/h
Spd
kts
Gust
kts
24/11:30pm 21.7 22.0 14.6 64 4.2 S 6 9 3 5 1011.7 - 0.2
24/11:00pm 22.3 21.2 15.2 64 4.3 SSW 15 24 8 13 1012.1 - 0.2
24/10:56pm 22.3 21.2 15.2 64 4.3 SSW 15 26 8 14 1012.2 - 0.2
24/10:32pm 23.3 16.0 15.6 62 4.7 WSW 48 67 26 36 1012.7 - 0.2
24/10:30pm 23.5 15.9 15.8 62 4.7 WSW 50 67 27 36 1012.5 - 0.2
24/10:25pm 24.7 17.0 16.4 60 5.1 WSW 52 67 28 36 1012.3 - 0.2
24/10:24pm 24.7 21.7 16.7 61 5.0 W 28 61 15 33 1012.3 - 0.2
24/10:00pm 22.9 25.1 16.4 67 4.0 CALM 0 0 0 0 1010.8 - 0.2
24/09:30pm 23.6 26.0 17.1 67 4.1 CALM 0 0 0 0 1010.8 - 0.2
24/09:00pm 23.2 25.5 16.7 67 4.0 CALM 0 0 0 0 1010.6 1009.9 0.2
24/08:30pm 23.5 25.2 15.3 60 5.0 CALM 0 0 0 0 1010.4 - 0.2
24/08:00pm 24.8 26.2 15.4 56 5.7 SE 2 6 1 3 1010.0 - 0.2
24/07:30pm 25.1 25.8 15.7 56 5.8 E 6 7 3 4 1009.3 - 0.2
24/07:00pm 25.6 26.3 15.6 54 6.1 E 6 7 3 4 1008.6 - 0.2
24/06:30pm 26.1 26.7 15.8 53 6.4 SE 7 9 4 5 1008.5 - 0.2
24/06:00pm 26.1 25.9 15.8 53 6.4 E 11 15 6 8 1008.2 1007.6 0.2
24/05:30pm 26.0 25.9 16.0 54 6.2 ESE 11 15 6 8 1008.6 - 0.2
24/05:00pm 25.9 26.1 16.7 57 5.8 SE 11 19 6 10 1009.1 - 0.2
24/04:30pm 24.9 23.7 17.6 64 4.6 SSW 20 26 11 14 1009.6 - 0.2
24/04:00pm 25.0 23.2 15.9 57 5.6 SSW 20 26 11 14 1010.5 - 0.2
24/03:30pm 26.0 23.8 16.0 54 6.2 SSW 22 28 12 15 1010.7 - 0.2
24/03:00pm 27.6 22.9 14.3 44 8.1 SSW 32 39 17 21 1010.6 1009.9 0.2
24/02:30pm 29.9 26.1 13.6 36 9.9 SW 26 33 14 18 1010.4 - 0.2
24/02:00pm 31.4 29.0 14.5 35 10.4 SSW 20 32 11 17 1010.1 - 0.2
24/01:30pm 31.4 26.4 14.1 35 10.6 SSW 33 46 18 25 1010.6 - 0.2
24/01:27pm 31.5 26.2 14.2 35 10.6 SW 35 46 19 25 1010.6 - 0.2
24/01:00pm 31.5 30.4 14.2 35 10.6 WNW 13 19 7 10 1010.9 - 0.2
24/12:30pm 31.2 30.0 13.9 35 10.6 NW 13 20 7 11 1011.1 - 0.2
24/12:00pm 31.3 30.9 13.1 33 11.0 N 7 13 4 7 1011.0 1010.3 0.2
24/11:30am 30.6 30.2 13.0 34 10.6 NNE 7 11 4 6 1011.4 - 0.2
24/11:00am 30.2 29.4 13.0 34 10.3 ENE 9 11 5 6 1011.8 - 0.2

Other Formats:

Comma delimited format used in spreadsheet applications
http://www.bom.gov.au/fwo/IDN60801/IDN60801.95721.axf

JavaScript Object Notation format (JSON) in row-major order
http://www.bom.gov.au/fwo/IDN60801/IDN60801.95721.json